createdAt,value
2023-01-17T04:25:09.967Z,17.10
2023-01-17T04:27:37.368Z,14.18
2023-01-17T04:30:04.772Z,14.18
2023-01-17T04:32:31.797Z,15.25
2023-01-17T04:35:05.358Z,12.00
2023-01-17T04:37:32.323Z,12.95
2023-01-17T04:39:59.394Z,15.45
2023-01-17T04:42:26.989Z,14.48
2023-01-17T04:44:53.949Z,15.23
2023-01-17T04:47:20.903Z,16.23
2023-01-17T04:49:48.134Z,16.02
2023-01-17T04:52:18.802Z,16.23
2023-01-17T04:54:48.590Z,16.67
2023-01-17T18:41:36.872Z,29.20
2023-01-17T18:44:06.216Z,29.23
2023-01-17T18:46:33.878Z,27.55
2023-01-17T18:49:01.193Z,30.02
2023-01-17T18:51:32.141Z,27.23
2023-01-17T18:54:19.422Z,29.63
2023-01-17T18:56:46.747Z,33.20
2023-01-17T18:59:18.533Z,29.00
2023-01-17T19:01:46.195Z,30.42
2023-01-17T19:04:16.538Z,28.42
2023-01-17T19:06:46.373Z,29.10
2023-01-17T19:09:15.532Z,31.70
2023-01-17T19:11:45.195Z,32.83
2023-01-17T19:14:13.241Z,33.15
2023-01-17T19:16:42.078Z,30.05
2023-01-17T19:19:13.260Z,31.75
2023-01-17T19:21:40.374Z,30.33
2023-01-17T19:24:11.082Z,25.80
2023-01-17T19:26:38.324Z,29.95
2023-01-17T19:29:06.948Z,26.20
2023-01-17T19:31:39.802Z,32.40
2023-01-17T19:34:06.823Z,27.57
2023-01-17T19:36:36.541Z,26.70
2023-01-17T19:39:06.826Z,28.00
2023-01-17T19:41:36.119Z,29.88
2023-01-17T19:44:06.506Z,27.00
2023-01-17T19:46:34.199Z,28.33
2023-01-17T19:49:02.093Z,27.40
2023-01-17T19:51:29.630Z,29.52
2023-01-17T19:53:59.320Z,27.38
2023-01-17T19:56:27.635Z,29.15
2023-01-17T19:58:54.872Z,26.43
2023-01-17T20:01:25.388Z,30.35
2023-01-17T20:03:53.053Z,24.52
2023-01-17T20:06:24.993Z,29.67
2023-01-17T20:08:52.096Z,26.08
2023-01-17T20:11:21.510Z,28.63
2023-01-17T20:13:51.732Z,26.73
2023-01-17T20:16:19.020Z,24.80
2023-01-17T20:18:46.933Z,24.83
2023-01-17T20:21:18.172Z,27.10
2023-01-17T20:23:51.852Z,23.27
2023-01-17T20:26:25.752Z,28.85
2023-01-17T20:28:53.562Z,24.10
2023-01-17T20:31:25.733Z,26.05
2023-01-17T20:33:54.881Z,24.50
2023-01-17T20:36:24.602Z,24.07
2023-01-17T20:38:53.309Z,26.42
2023-01-17T20:41:25.648Z,24.50
2023-01-17T20:43:56.896Z,25.08
2023-01-17T20:46:26.752Z,26.65
2023-01-17T20:48:56.348Z,22.03
2023-01-17T20:51:26.223Z,24.08
2023-01-17T20:53:56.571Z,25.52
2023-01-17T20:56:24.587Z,32.88
2023-01-17T20:58:52.985Z,23.75
2023-01-17T21:01:21.559Z,25.13
2023-01-17T21:03:52.580Z,23.95
2023-01-17T21:06:22.135Z,23.00
2023-01-17T21:08:49.907Z,22.35
2023-01-17T21:11:23.051Z,23.15
2023-01-17T21:13:51.362Z,22.27
2023-01-17T21:16:21.372Z,24.40
2023-01-17T21:18:50.206Z,25.40
2023-01-17T21:21:22.942Z,21.83
2023-01-17T21:23:52.465Z,22.05
2023-01-17T21:26:21.525Z,22.47
2023-01-17T21:28:51.067Z,26.35
2023-01-17T21:31:29.908Z,25.00
2023-01-17T21:34:17.385Z,23.60
2023-01-17T21:36:44.642Z,23.38
2023-01-17T21:39:17.975Z,21.97
2023-01-17T21:41:48.147Z,24.75
2023-01-17T21:44:19.478Z,25.23
2023-01-17T21:46:47.501Z,26.73
2023-01-17T21:49:15.494Z,26.75
2023-01-17T21:51:55.614Z,28.53
2023-01-17T21:54:44.398Z,27.27
2023-01-17T21:57:35.233Z,28.83
2023-01-17T22:00:03.701Z,29.55
2023-01-17T22:02:30.788Z,29.45
2023-01-17T22:04:58.928Z,27.53
2023-01-17T22:07:29.291Z,32.63
2023-01-17T22:09:57.124Z,27.38
2023-01-17T22:12:24.365Z,26.00
2023-01-17T22:14:51.664Z,20.00
2023-01-17T22:17:18.730Z,21.23
2023-01-17T22:19:46.165Z,20.33
2023-01-17T22:22:13.782Z,17.23
2023-01-17T22:24:40.999Z,15.10
2023-01-17T22:27:10.054Z,11.77
2023-01-17T22:29:37.956Z,11.20
2023-01-17T22:32:05.286Z,8.50
2023-01-17T22:34:32.232Z,8.43
2023-01-17T22:36:59.593Z,8.50
2023-01-17T22:39:26.613Z,8.38
2023-01-17T22:41:53.971Z,8.37
2023-01-17T22:44:21.114Z,8.85
2023-01-17T22:46:49.123Z,13.88
2023-01-17T22:49:17.462Z,12.05
2023-01-17T22:51:45.144Z,11.10
2023-01-17T22:54:12.691Z,10.93
2023-01-17T22:56:39.711Z,17.55
2023-01-17T22:59:11.840Z,16.35
2023-01-17T23:01:43.086Z,14.45
2023-01-17T23:04:14.148Z,12.80
2023-01-17T23:06:41.846Z,7.17
2023-01-17T23:09:14.240Z,8.52
2023-01-17T23:11:53.094Z,11.55
2023-01-17T23:14:24.526Z,8.57
2023-01-17T23:17:18.812Z,8.25
2023-01-17T23:19:52.841Z,8.60
2023-01-17T23:22:28.515Z,8.50
2023-01-17T23:25:11.198Z,10.90
2023-01-17T23:28:00.027Z,11.05
2023-01-17T23:30:40.418Z,8.07
2023-01-17T23:33:09.868Z,12.10
2023-01-17T23:35:41.671Z,8.63
2023-01-17T23:38:26.286Z,9.20
2023-01-17T23:41:18.184Z,7.90
2023-01-17T23:43:51.002Z,9.20
2023-01-17T23:46:18.097Z,8.43
2023-01-17T23:48:45.170Z,6.43
2023-01-17T23:51:12.276Z,9.70
2023-01-17T23:53:40.088Z,7.97
2023-01-17T23:56:22.458Z,25.73
2023-01-17T23:58:49.772Z,10.33
